Brenton Reef — KREQ — position and weather

sailwx.info

Track history (hours):
 
Tides and Currents Weather Stations Pressure Air Temp Water Temp Dewpoint Dewpoint Depression Visibility Wind Speed Wind Dir Waves Ship Positions

Brenton Reef

Owner: Seabulk Tankers, Inc., Fort Lauderdale, FL. More information available from US FCC via Universal Licensing System and Coast Guard Vessel Documentation Center.

Last reported at 2017-Oct-16 18:09 UTC. Time now 2017-Oct-16 22:42 UTC.
Position N 25°23' W 080°00'.

Length 189 m; draft 7.6 m.

Type: Tanker. MMSI: 368004000.

Date/timePositionNaut miles runAvg speedWind from/ knotsBaromVisibWave heightAir tempDewpointWater temp
2017-Oct-16 18:09N 25°23' W 080°00'211.3
2017-Oct-16 17:56N 25°25' W 079°60'511.4
2017-Oct-16 17:30N 25°30' W 079°59'611.6
2017-Oct-16 17:00N 25°36' W 079°58'611.5
2017-Oct-16 16:30N 25°41' W 079°58'611.6
2017-Oct-16 16:01N 25°47' W 079°58'612.0
2017-Oct-16 15:30N 25°53' W 079°60'612.3
2017-Oct-16 15:00N 25°59' W 080°01'9 8.7
2017-Oct-16 14:00N 26°05' W 080°07'0 0.4
2017-Oct-16 13:29N 26°05' W 080°07'0 0.0
2017-Oct-16 12:59N 26°05' W 080°07'0 0.0
2017-Oct-16 12:29N 26°05' W 080°07'0 0.0
2017-Oct-16 11:59N 26°05' W 080°07'0 0.0
2017-Oct-16 10:47N 26°05' W 080°07'0 0.0
2017-Oct-16 10:20N 26°05' W 080°07'0 0.0
2017-Oct-16 09:50N 26°05' W 080°07'0 0.0
2017-Oct-16 09:23N 26°05' W 080°07'0 0.0
2017-Oct-16 08:53N 26°05' W 080°07'0 0.0
2017-Oct-16 08:17N 26°05' W 080°07'0 0.0
2017-Oct-16 07:53N 26°05' W 080°07'0 0.0
2017-Oct-16 07:23N 26°05' W 080°07'0 0.0
2017-Oct-16 06:53N 26°05' W 080°07'0 0.0
2017-Oct-16 06:26N 26°05' W 080°07'0 0.0
2017-Oct-16 05:56N 26°05' W 080°07'0 0.0
2017-Oct-16 05:26N 26°05' W 080°07'0 0.0
2017-Oct-16 04:56N 26°05' W 080°07'0 0.0
2017-Oct-16 04:26N 26°05' W 080°07'0 0.0
2017-Oct-16 03:53N 26°05' W 080°07'0 0.0
2017-Oct-16 03:26N 26°05' W 080°07'0 0.0
2017-Oct-16 02:59N 26°05' W 080°07'0 0.0
2017-Oct-16 02:29N 26°05' W 080°07'0 0.0
2017-Oct-16 01:49N 26°05' W 080°07'0 0.0
2017-Oct-16 01:22N 26°05' W 080°07'0 0.0
2017-Oct-16 00:52N 26°05' W 080°07'0 0.0
2017-Oct-16 00:22N 26°05' W 080°07'0 0.0
2017-Oct-15 23:52N 26°05' W 080°07'0 0.0
2017-Oct-15 23:22N 26°05' W 080°07'0 0.0
2017-Oct-15 22:52N 26°05' W 080°07'0 0.0
2017-Oct-15 22:22N 26°05' W 080°07'0 0.0
2017-Oct-15 21:55N 26°05' W 080°07'0 0.0
2017-Oct-15 21:25N 26°05' W 080°07'0 0.0
2017-Oct-15 20:55N 26°05' W 080°07'0 0.0
2017-Oct-15 20:22N 26°05' W 080°07'0 0.0
2017-Oct-15 19:52N 26°05' W 080°07'0 0.0
2017-Oct-15 18:28N 26°05' W 080°07'0 0.0
2017-Oct-15 17:58N 26°05' W 080°07'0 0.0
2017-Oct-15 17:28N 26°05' W 080°07'0 0.0
2017-Oct-15 16:58N 26°05' W 080°07'0 0.0
2017-Oct-15 16:28N 26°05' W 080°07'0 0.0
2017-Oct-15 15:58N 26°05' W 080°07'0 0.0
2017-Oct-15 15:28N 26°05' W 080°07'0 0.0
2017-Oct-15 14:58N 26°05' W 080°07'0 0.1
2017-Oct-15 14:00N 26°05' W 080°07'3 5.3
2017-Oct-15 13:30N 26°06' W 080°04'3 6.0
2017-Oct-15 13:00N 26°03' W 080°02'4 7.9
2017-Oct-15 12:31N 25°59' W 080°02'611.2
2017-Oct-15 12:00N 25°54' W 079°59'816.8
2017-Oct-15 11:30N 25°46' W 079°57'917.2
2017-Oct-15 11:00N 25°37' W 079°57'917.2
2017-Oct-15 10:30N 25°29' W 079°57'198 5.3
2017-Oct-13 20:50N 27°55' W 082°27'0 0.0
2017-Oct-13 20:29N 27°55' W 082°27'0 0.0
2017-Oct-13 19:59N 27°55' W 082°27'0 0.0
2017-Oct-13 19:29N 27°55' W 082°27'0 0.0
2017-Oct-13 18:59N 27°55' W 082°27'0 0.0
2017-Oct-13 18:29N 27°55' W 082°27'0 0.0
2017-Oct-13 17:56N 27°55' W 082°27'0 0.0
2017-Oct-13 17:29N 27°55' W 082°27'0 0.0
2017-Oct-13 16:56N 27°55' W 082°27'0 0.0
2017-Oct-13 16:29N 27°55' W 082°27'0 0.0
2017-Oct-13 15:59N 27°55' W 082°27'0 0.0
2017-Oct-13 15:29N 27°55' W 082°27'0 0.0
2017-Oct-13 14:59N 27°55' W 082°27'0 0.0
2017-Oct-13 14:29N 27°55' W 082°27'0 0.0
2017-Oct-13 13:59N 27°55' W 082°27'0 0.0
2017-Oct-13 13:29N 27°55' W 082°27'0 0.0
2017-Oct-13 12:56N 27°55' W 082°27'0 0.0
2017-Oct-13 12:29N 27°55' W 082°27'0 0.0
2017-Oct-13 11:59N 27°55' W 082°27'0 0.0
2017-Oct-13 11:29N 27°55' W 082°27'0 0.0
2017-Oct-13 10:59N 27°55' W 082°27'0 0.0
2017-Oct-13 10:29N 27°55' W 082°27'0 0.0
2017-Oct-13 09:59N 27°55' W 082°27'0 0.0
2017-Oct-13 09:29N 27°55' W 082°27'0 0.0
2017-Oct-13 08:59N 27°55' W 082°27'0 0.0
2017-Oct-13 08:29N 27°55' W 082°27'0 0.0
2017-Oct-13 07:59N 27°55' W 082°27'0 0.0
2017-Oct-13 07:29N 27°55' W 082°27'0 0.0
2017-Oct-13 06:59N 27°55' W 082°27'0 0.0
2017-Oct-13 06:29N 27°55' W 082°27'0 0.0
2017-Oct-13 05:59N 27°55' W 082°27'0 0.0
2017-Oct-13 05:29N 27°55' W 082°27'0 0.0
2017-Oct-13 04:59N 27°55' W 082°27'0 0.0
2017-Oct-13 04:29N 27°55' W 082°27'0 0.0
2017-Oct-13 03:59N 27°55' W 082°27'0 0.0
2017-Oct-13 03:26N 27°55' W 082°27'0 0.0
2017-Oct-13 02:59N 27°55' W 082°27'0 0.0
2017-Oct-13 02:29N 27°55' W 082°27'0 0.0
2017-Oct-13 01:59N 27°55' W 082°27'0 0.0
2017-Oct-13 01:29N 27°55' W 082°27'0 0.0
2017-Oct-13 00:59N 27°55' W 082°27'0 0.0
2017-Oct-13 00:30N 27°55' W 082°27'1 2.3
2017-Oct-13 00:00N 27°54' W 082°26'510.3
2017-Oct-12 23:30N 27°49' W 082°27'5 9.6
2017-Oct-12 23:01N 27°46' W 082°31'58311.9
2017-Oct-10 22:08N 29°52' W 093°21'1 9.9
2017-Oct-10 22:00N 29°54' W 093°21'5 9.4
2017-Oct-10 21:30N 29°58' W 093°20'3 7.0
2017-Oct-10 21:00N 30°02' W 093°20'3 6.9
2017-Oct-10 20:30N 30°05' W 093°20'4 7.0
2017-Oct-10 20:00N 30°09' W 093°20'2 4.3
2017-Oct-10 19:30N 30°11' W 093°19'2 4.6
2017-Oct-10 19:00N 30°12' W 093°17'1 3.0
2017-Oct-10 18:30N 30°13' W 093°16'1 1.5
2017-Oct-10 17:59N 30°14' W 093°15'0 0.0
2017-Oct-10 17:08N 30°14' W 093°15'0 0.0
2017-Oct-10 16:59N 30°14' W 093°15'0 0.0
2017-Oct-10 16:29N 30°14' W 093°15'0 0.0
2017-Oct-10 15:59N 30°14' W 093°15'0 0.0
2017-Oct-10 15:29N 30°14' W 093°15'0 0.0
2017-Oct-10 14:59N 30°14' W 093°15'0 0.0
2017-Oct-10 13:59N 30°14' W 093°15'0 0.0
2017-Oct-10 13:23N 30°14' W 093°15'0 0.0
2017-Oct-10 12:47N 30°14' W 093°15'0 0.0
2017-Oct-10 12:29N 30°14' W 093°15'0 0.0
2017-Oct-10 11:59N 30°14' W 093°15'0 0.0
2017-Oct-10 11:29N 30°14' W 093°15'0 0.0
2017-Oct-10 10:56N 30°14' W 093°15'0 0.0
2017-Oct-10 10:29N 30°14' W 093°15'0 0.0
2017-Oct-10 09:40N 30°14' W 093°15'0 0.0
2017-Oct-10 09:28N 30°14' W 093°15'0 0.0
2017-Oct-10 08:37N 30°14' W 093°15'0 0.0
2017-Oct-10 08:28N 30°14' W 093°15'0 0.0
2017-Oct-10 07:52N 30°14' W 093°15'0 0.0
2017-Oct-10 07:28N 30°14' W 093°15'0 0.0
2017-Oct-10 06:58N 30°14' W 093°15'0 0.0
2017-Oct-10 06:28N 30°14' W 093°15'0 0.0
2017-Oct-10 05:55N 30°14' W 093°15'0 0.0
2017-Oct-10 05:28N 30°14' W 093°15'0 0.0
2017-Oct-10 04:46N 30°14' W 093°15'0 0.0
2017-Oct-10 04:28N 30°14' W 093°15'0 0.0
2017-Oct-10 03:58N 30°14' W 093°15'0 0.0
2017-Oct-10 03:22N 30°14' W 093°15'0 0.0
2017-Oct-10 02:58N 30°14' W 093°15'0 0.0
2017-Oct-10 02:28N 30°14' W 093°15'0 0.0
2017-Oct-10 01:55N 30°14' W 093°15'0 0.0
2017-Oct-10 01:28N 30°14' W 093°15'0 0.0
2017-Oct-10 00:55N 30°14' W 093°15'0 0.0
2017-Oct-10 00:16N 30°14' W 093°15'0 0.0
2017-Oct-09 23:58N 30°14' W 093°15'0 0.0
2017-Oct-09 23:28N 30°14' W 093°15'0 0.0
2017-Oct-09 22:58N 30°14' W 093°15'0 0.0
2017-Oct-09 22:28N 30°14' W 093°15'0 0.0
2017-Oct-09 21:58N 30°14' W 093°15'0 0.0
2017-Oct-09 21:28N 30°14' W 093°15'0 0.0
2017-Oct-09 20:58N 30°14' W 093°15'0 0.0
2017-Oct-09 20:28N 30°14' W 093°15'0 0.0
2017-Oct-09 19:55N 30°14' W 093°15'0 0.0
2017-Oct-09 19:28N 30°14' W 093°15'0 0.0
2017-Oct-09 18:58N 30°14' W 093°15'0 0.0
2017-Oct-09 18:28N 30°14' W 093°15'0 0.0
2017-Oct-09 17:46N 30°14' W 093°15'0 0.0
2017-Oct-09 17:28N 30°14' W 093°15'0 0.0
2017-Oct-09 16:52N 30°14' W 093°15'0 0.0
2017-Oct-09 16:19N 30°14' W 093°15'0 0.0
2017-Oct-09 15:58N 30°14' W 093°15'0 0.0
2017-Oct-09 15:28N 30°14' W 093°15'0 0.0
2017-Oct-09 14:58N 30°14' W 093°15'0 0.0
2017-Oct-09 14:28N 30°14' W 093°15'0 0.0
2017-Oct-09 13:58N 30°14' W 093°15'0 0.0
2017-Oct-09 13:28N 30°14' W 093°15'0 0.0
2017-Oct-09 12:58N 30°14' W 093°15'0 0.0
2017-Oct-09 12:25N 30°14' W 093°15'0 0.0
2017-Oct-09 11:40N 30°14' W 093°15'0 0.0
2017-Oct-09 11:22N 30°14' W 093°15'0 0.0
2017-Oct-09 10:58N 30°14' W 093°15'0 0.0
2017-Oct-09 10:28N 30°14' W 093°15'0 0.0
2017-Oct-09 06:19N 30°14' W 093°15'0 0.0
2017-Oct-09 05:52N 30°14' W 093°15'0 0.0
2017-Oct-09 05:28N 30°14' W 093°15'0 0.0
2017-Oct-09 04:58N 30°14' W 093°15'0 0.0
2017-Oct-09 04:28N 30°14' W 093°15'0 0.0
2017-Oct-09 03:58N 30°14' W 093°15'0 0.0
2017-Oct-09 03:28N 30°14' W 093°15'0 0.0
2017-Oct-09 02:58N 30°14' W 093°15'0 0.0
2017-Oct-09 02:25N 30°14' W 093°15'0 0.0
2017-Oct-09 01:55N 30°14' W 093°15'0 0.0
2017-Oct-09 01:28N 30°14' W 093°15'0 0.0
2017-Oct-09 00:58N 30°14' W 093°15'0 0.0
2017-Oct-09 00:28N 30°14' W 093°15'0 0.0
2017-Oct-08 23:58N 30°14' W 093°15'0 0.0
2017-Oct-08 23:28N 30°14' W 093°15'0 0.0
2017-Oct-08 22:58N 30°14' W 093°15'0 0.0
2017-Oct-08 22:28N 30°14' W 093°15'0 0.0
2017-Oct-08 21:58N 30°14' W 093°15'0 0.0
2017-Oct-08 21:25N 30°14' W 093°15'0 0.0
2017-Oct-08 20:58N 30°14' W 093°15'0 0.0
2017-Oct-08 20:28N 30°14' W 093°15'0 0.0
2017-Oct-08 19:58N 30°14' W 093°15'0 0.0
2017-Oct-08 19:28N 30°14' W 093°15'0 0.0
2017-Oct-08 18:58N 30°14' W 093°15'0 0.0
2017-Oct-08 18:19N 30°14' W 093°15'0 0.0
2017-Oct-08 17:58N 30°14' W 093°15'0 0.0
2017-Oct-08 17:28N 30°14' W 093°15'0 0.0
2017-Oct-08 16:46N 30°14' W 093°15'0 0.0
2017-Oct-08 16:28N 30°14' W 093°15'0 0.0
2017-Oct-08 15:55N 30°14' W 093°15'0 0.0
2017-Oct-08 15:28N 30°14' W 093°15'0 0.0
2017-Oct-08 14:58N 30°14' W 093°15'0 0.0
2017-Oct-08 14:28N 30°14' W 093°15'0 0.0
2017-Oct-08 13:58N 30°14' W 093°15'0 0.0
2017-Oct-08 13:28N 30°14' W 093°15'0 0.0
2017-Oct-08 12:58N 30°14' W 093°15'0 0.0
2017-Oct-08 12:22N 30°14' W 093°15'0 0.0
2017-Oct-08 11:58N 30°14' W 093°15'0 0.0
2017-Oct-08 11:28N 30°14' W 093°15'0 0.0
2017-Oct-08 10:58N 30°14' W 093°15'0 0.0
2017-Oct-08 10:28N 30°14' W 093°15'0 0.0
2017-Oct-08 09:58N 30°14' W 093°15'0 0.0
2017-Oct-08 09:28N 30°14' W 093°15'0 0.0
2017-Oct-08 08:58N 30°14' W 093°15'0 0.0
2017-Oct-08 08:28N 30°14' W 093°15'0 0.0
2017-Oct-08 07:58N 30°14' W 093°15'0 0.0
2017-Oct-08 07:25N 30°14' W 093°15'0 0.0
2017-Oct-08 06:58N 30°14' W 093°15'0 0.0
2017-Oct-08 06:28N 30°14' W 093°15'0 0.0
2017-Oct-08 05:58N 30°14' W 093°15'0 0.0
2017-Oct-08 05:28N 30°14' W 093°15'0 0.0
2017-Oct-08 04:58N 30°14' W 093°15'0 0.0
2017-Oct-08 04:28N 30°14' W 093°15'0 0.0
2017-Oct-08 03:58N 30°14' W 093°15'0 0.0
2017-Oct-08 03:28N 30°14' W 093°15'0 0.0
2017-Oct-08 02:58N 30°14' W 093°15'0 0.0
2017-Oct-08 02:28N 30°14' W 093°15'0 0.0
2017-Oct-08 01:58N 30°14' W 093°15'0 0.0
2017-Oct-08 01:28N 30°14' W 093°15'0 0.0
2017-Oct-08 00:58N 30°14' W 093°15'0 0.0
2017-Oct-08 00:22N 30°14' W 093°15'0 0.0
2017-Oct-07 23:58N 30°14' W 093°15'0 0.0
2017-Oct-07 23:25N 30°14' W 093°15'0 0.0
2017-Oct-07 22:58N 30°14' W 093°15'0 0.0
2017-Oct-07 22:28N 30°14' W 093°15'0 0.0
2017-Oct-07 21:58N 30°14' W 093°15'0 0.0
2017-Oct-07 21:28N 30°14' W 093°15'0 0.0
2017-Oct-07 20:55N 30°14' W 093°15'0 0.0
2017-Oct-07 20:28N 30°14' W 093°15'0 0.0
2017-Oct-07 19:58N 30°14' W 093°15'0 0.1
2017-Oct-07 19:30N 30°14' W 093°15'1 1.8
2017-Oct-07 18:59N 30°13' W 093°16'0 0.0
2017-Oct-07 18:29N 30°13' W 093°16'0 0.0
2017-Oct-07 17:59N 30°13' W 093°16'0 0.1
2017-Oct-07 17:29N 30°13' W 093°16'0 0.1
2017-Oct-07 16:59N 30°13' W 093°16'0 0.0
2017-Oct-07 16:29N 30°13' W 093°16'0 0.1
2017-Oct-07 15:59N 30°13' W 093°16'0 0.0
2017-Oct-07 15:29N 30°13' W 093°16'0 0.0
2017-Oct-07 14:59N 30°13' W 093°16'0 0.0
2017-Oct-07 14:29N 30°13' W 093°16'0 0.0
2017-Oct-07 13:59N 30°13' W 093°16'0 0.0
2017-Oct-07 13:29N 30°13' W 093°16'0 0.0
2017-Oct-07 12:59N 30°13' W 093°16'0 0.0
2017-Oct-07 12:29N 30°13' W 093°16'0 0.0
2017-Oct-07 11:59N 30°13' W 093°16'0 0.0
2017-Oct-07 11:29N 30°13' W 093°16'0 0.0
2017-Oct-07 10:59N 30°13' W 093°16'0 0.0
2017-Oct-07 10:29N 30°13' W 093°16'0 0.0
2017-Oct-07 09:59N 30°13' W 093°16'0 0.0
2017-Oct-07 09:29N 30°13' W 093°16'0 0.0
2017-Oct-07 08:59N 30°13' W 093°16'0 0.0
2017-Oct-07 08:29N 30°13' W 093°16'0 0.0
2017-Oct-07 07:59N 30°13' W 093°16'0 0.0
2017-Oct-07 07:29N 30°13' W 093°16'0 0.5
2017-Oct-07 07:00N 30°13' W 093°16'2 4.0
2017-Oct-07 06:30N 30°12' W 093°17'2 4.4
2017-Oct-07 06:00N 30°10' W 093°19'3 5.0
2017-Oct-07 05:30N 30°08' W 093°20'3 6.6
2017-Oct-07 05:00N 30°04' W 093°20'4 7.3
2017-Oct-07 04:30N 30°01' W 093°20'4 7.7
2017-Oct-07 04:00N 29°57' W 093°20'611.0
2017-Oct-07 03:30N 29°51' W 093°21'4 8.6
2017-Oct-07 03:00N 29°47' W 093°21'  
Track history (hours):
 
Tides and Currents Weather Stations Pressure Air Temp Water Temp Dewpoint Dewpoint Depression Visibility Wind Speed Wind Dir Waves Ship Positions

Brenton Reef

Owner: Seabulk Tankers, Inc., Fort Lauderdale, FL. More information available from US FCC via Universal Licensing System and Coast Guard Vessel Documentation Center.

Last reported at 2017-Oct-16 18:09 UTC. Time now 2017-Oct-16 22:42 UTC.
Position N 25°23' W 080°00'.

Length 189 m; draft 7.6 m.

Type: Tanker. MMSI: 368004000.

Date/timePositionNaut miles runAvg speedWind from/ knotsBaromVisibWave heightAir tempDewpointWater temp
2017-Oct-16 18:09N 25°23' W 080°00'211.3
2017-Oct-16 17:56N 25°25' W 079°60'511.4
2017-Oct-16 17:30N 25°30' W 079°59'611.6
2017-Oct-16 17:00N 25°36' W 079°58'611.5
2017-Oct-16 16:30N 25°41' W 079°58'611.6
2017-Oct-16 16:01N 25°47' W 079°58'612.0
2017-Oct-16 15:30N 25°53' W 079°60'612.3
2017-Oct-16 15:00N 25°59' W 080°01'9 8.7
2017-Oct-16 14:00N 26°05' W 080°07'0 0.4
2017-Oct-16 13:29N 26°05' W 080°07'0 0.0
2017-Oct-16 12:59N 26°05' W 080°07'0 0.0
2017-Oct-16 12:29N 26°05' W 080°07'0 0.0
2017-Oct-16 11:59N 26°05' W 080°07'0 0.0
2017-Oct-16 10:47N 26°05' W 080°07'0 0.0
2017-Oct-16 10:20N 26°05' W 080°07'0 0.0
2017-Oct-16 09:50N 26°05' W 080°07'0 0.0
2017-Oct-16 09:23N 26°05' W 080°07'0 0.0
2017-Oct-16 08:53N 26°05' W 080°07'0 0.0
2017-Oct-16 08:17N 26°05' W 080°07'0 0.0
2017-Oct-16 07:53N 26°05' W 080°07'0 0.0
2017-Oct-16 07:23N 26°05' W 080°07'0 0.0
2017-Oct-16 06:53N 26°05' W 080°07'0 0.0
2017-Oct-16 06:26N 26°05' W 080°07'0 0.0
2017-Oct-16 05:56N 26°05' W 080°07'0 0.0
2017-Oct-16 05:26N 26°05' W 080°07'0 0.0
2017-Oct-16 04:56N 26°05' W 080°07'0 0.0
2017-Oct-16 04:26N 26°05' W 080°07'0 0.0
2017-Oct-16 03:53N 26°05' W 080°07'0 0.0
2017-Oct-16 03:26N 26°05' W 080°07'0 0.0
2017-Oct-16 02:59N 26°05' W 080°07'0 0.0
2017-Oct-16 02:29N 26°05' W 080°07'0 0.0
2017-Oct-16 01:49N 26°05' W 080°07'0 0.0
2017-Oct-16 01:22N 26°05' W 080°07'0 0.0
2017-Oct-16 00:52N 26°05' W 080°07'0 0.0
2017-Oct-16 00:22N 26°05' W 080°07'0 0.0
2017-Oct-15 23:52N 26°05' W 080°07'0 0.0
2017-Oct-15 23:22N 26°05' W 080°07'0 0.0
2017-Oct-15 22:52N 26°05' W 080°07'0 0.0
2017-Oct-15 22:22N 26°05' W 080°07'0 0.0
2017-Oct-15 21:55N 26°05' W 080°07'0 0.0
2017-Oct-15 21:25N 26°05' W 080°07'0 0.0
2017-Oct-15 20:55N 26°05' W 080°07'0 0.0
2017-Oct-15 20:22N 26°05' W 080°07'0 0.0
2017-Oct-15 19:52N 26°05' W 080°07'0 0.0
2017-Oct-15 18:28N 26°05' W 080°07'0 0.0
2017-Oct-15 17:58N 26°05' W 080°07'0 0.0
2017-Oct-15 17:28N 26°05' W 080°07'0 0.0
2017-Oct-15 16:58N 26°05' W 080°07'0 0.0
2017-Oct-15 16:28N 26°05' W 080°07'0 0.0
2017-Oct-15 15:58N 26°05' W 080°07'0 0.0
2017-Oct-15 15:28N 26°05' W 080°07'0 0.0
2017-Oct-15 14:58N 26°05' W 080°07'0 0.1
2017-Oct-15 14:00N 26°05' W 080°07'3 5.3
2017-Oct-15 13:30N 26°06' W 080°04'3 6.0
2017-Oct-15 13:00N 26°03' W 080°02'4 7.9
2017-Oct-15 12:31N 25°59' W 080°02'611.2
2017-Oct-15 12:00N 25°54' W 079°59'816.8
2017-Oct-15 11:30N 25°46' W 079°57'917.2
2017-Oct-15 11:00N 25°37' W 079°57'917.2
2017-Oct-15 10:30N 25°29' W 079°57'198 5.3
2017-Oct-13 20:50N 27°55' W 082°27'0 0.0
2017-Oct-13 20:29N 27°55' W 082°27'0 0.0
2017-Oct-13 19:59N 27°55' W 082°27'0 0.0
2017-Oct-13 19:29N 27°55' W 082°27'0 0.0
2017-Oct-13 18:59N 27°55' W 082°27'0 0.0
2017-Oct-13 18:29N 27°55' W 082°27'0 0.0
2017-Oct-13 17:56N 27°55' W 082°27'0 0.0
2017-Oct-13 17:29N 27°55' W 082°27'0 0.0
2017-Oct-13 16:56N 27°55' W 082°27'0 0.0
2017-Oct-13 16:29N 27°55' W 082°27'0 0.0
2017-Oct-13 15:59N 27°55' W 082°27'0 0.0
2017-Oct-13 15:29N 27°55' W 082°27'0 0.0
2017-Oct-13 14:59N 27°55' W 082°27'0 0.0
2017-Oct-13 14:29N 27°55' W 082°27'0 0.0
2017-Oct-13 13:59N 27°55' W 082°27'0 0.0
2017-Oct-13 13:29N 27°55' W 082°27'0 0.0
2017-Oct-13 12:56N 27°55' W 082°27'0 0.0
2017-Oct-13 12:29N 27°55' W 082°27'0 0.0
2017-Oct-13 11:59N 27°55' W 082°27'0 0.0
2017-Oct-13 11:29N 27°55' W 082°27'0 0.0
2017-Oct-13 10:59N 27°55' W 082°27'0 0.0
2017-Oct-13 10:29N 27°55' W 082°27'0 0.0
2017-Oct-13 09:59N 27°55' W 082°27'0 0.0
2017-Oct-13 09:29N 27°55' W 082°27'0 0.0
2017-Oct-13 08:59N 27°55' W 082°27'0 0.0
2017-Oct-13 08:29N 27°55' W 082°27'0 0.0
2017-Oct-13 07:59N 27°55' W 082°27'0 0.0
2017-Oct-13 07:29N 27°55' W 082°27'0 0.0
2017-Oct-13 06:59N 27°55' W 082°27'0 0.0
2017-Oct-13 06:29N 27°55' W 082°27'0 0.0
2017-Oct-13 05:59N 27°55' W 082°27'0 0.0
2017-Oct-13 05:29N 27°55' W 082°27'0 0.0
2017-Oct-13 04:59N 27°55' W 082°27'0 0.0
2017-Oct-13 04:29N 27°55' W 082°27'0 0.0
2017-Oct-13 03:59N 27°55' W 082°27'0 0.0
2017-Oct-13 03:26N 27°55' W 082°27'0 0.0
2017-Oct-13 02:59N 27°55' W 082°27'0 0.0
2017-Oct-13 02:29N 27°55' W 082°27'0 0.0
2017-Oct-13 01:59N 27°55' W 082°27'0 0.0
2017-Oct-13 01:29N 27°55' W 082°27'0 0.0
2017-Oct-13 00:59N 27°55' W 082°27'0 0.0
2017-Oct-13 00:30N 27°55' W 082°27'1 2.3
2017-Oct-13 00:00N 27°54' W 082°26'510.3
2017-Oct-12 23:30N 27°49' W 082°27'5 9.6
2017-Oct-12 23:01N 27°46' W 082°31'58311.9
2017-Oct-10 22:08N 29°52' W 093°21'1 9.9
2017-Oct-10 22:00N 29°54' W 093°21'5 9.4
2017-Oct-10 21:30N 29°58' W 093°20'3 7.0
2017-Oct-10 21:00N 30°02' W 093°20'3 6.9
2017-Oct-10 20:30N 30°05' W 093°20'4 7.0
2017-Oct-10 20:00N 30°09' W 093°20'2 4.3
2017-Oct-10 19:30N 30°11' W 093°19'2 4.6
2017-Oct-10 19:00N 30°12' W 093°17'1 3.0
2017-Oct-10 18:30N 30°13' W 093°16'1 1.5
2017-Oct-10 17:59N 30°14' W 093°15'0 0.0
2017-Oct-10 17:08N 30°14' W 093°15'0 0.0
2017-Oct-10 16:59N 30°14' W 093°15'0 0.0
2017-Oct-10 16:29N 30°14' W 093°15'0 0.0
2017-Oct-10 15:59N 30°14' W 093°15'0 0.0
2017-Oct-10 15:29N 30°14' W 093°15'0 0.0
2017-Oct-10 14:59N 30°14' W 093°15'0 0.0
2017-Oct-10 13:59N 30°14' W 093°15'0 0.0
2017-Oct-10 13:23N 30°14' W 093°15'0 0.0
2017-Oct-10 12:47N 30°14' W 093°15'0 0.0
2017-Oct-10 12:29N 30°14' W 093°15'0 0.0
2017-Oct-10 11:59N 30°14' W 093°15'0 0.0
2017-Oct-10 11:29N 30°14' W 093°15'0 0.0
2017-Oct-10 10:56N 30°14' W 093°15'0 0.0
2017-Oct-10 10:29N 30°14' W 093°15'0 0.0
2017-Oct-10 09:40N 30°14' W 093°15'0 0.0
2017-Oct-10 09:28N 30°14' W 093°15'0 0.0
2017-Oct-10 08:37N 30°14' W 093°15'0 0.0
2017-Oct-10 08:28N 30°14' W 093°15'0 0.0
2017-Oct-10 07:52N 30°14' W 093°15'0 0.0
2017-Oct-10 07:28N 30°14' W 093°15'0 0.0
2017-Oct-10 06:58N 30°14' W 093°15'0 0.0
2017-Oct-10 06:28N 30°14' W 093°15'0 0.0
2017-Oct-10 05:55N 30°14' W 093°15'0 0.0
2017-Oct-10 05:28N 30°14' W 093°15'0 0.0
2017-Oct-10 04:46N 30°14' W 093°15'0 0.0
2017-Oct-10 04:28N 30°14' W 093°15'0 0.0
2017-Oct-10 03:58N 30°14' W 093°15'0 0.0
2017-Oct-10 03:22N 30°14' W 093°15'0 0.0
2017-Oct-10 02:58N 30°14' W 093°15'0 0.0
2017-Oct-10 02:28N 30°14' W 093°15'0 0.0
2017-Oct-10 01:55N 30°14' W 093°15'0 0.0
2017-Oct-10 01:28N 30°14' W 093°15'0 0.0
2017-Oct-10 00:55N 30°14' W 093°15'0 0.0
2017-Oct-10 00:16N 30°14' W 093°15'0 0.0
2017-Oct-09 23:58N 30°14' W 093°15'0 0.0
2017-Oct-09 23:28N 30°14' W 093°15'0 0.0
2017-Oct-09 22:58N 30°14' W 093°15'0 0.0
2017-Oct-09 22:28N 30°14' W 093°15'0 0.0
2017-Oct-09 21:58N 30°14' W 093°15'0 0.0
2017-Oct-09 21:28N 30°14' W 093°15'0 0.0
2017-Oct-09 20:58N 30°14' W 093°15'0 0.0
2017-Oct-09 20:28N 30°14' W 093°15'0 0.0
2017-Oct-09 19:55N 30°14' W 093°15'0 0.0
2017-Oct-09 19:28N 30°14' W 093°15'0 0.0
2017-Oct-09 18:58N 30°14' W 093°15'0 0.0
2017-Oct-09 18:28N 30°14' W 093°15'0 0.0
2017-Oct-09 17:46N 30°14' W 093°15'0 0.0
2017-Oct-09 17:28N 30°14' W 093°15'0 0.0
2017-Oct-09 16:52N 30°14' W 093°15'0 0.0
2017-Oct-09 16:19N 30°14' W 093°15'0 0.0
2017-Oct-09 15:58N 30°14' W 093°15'0 0.0
2017-Oct-09 15:28N 30°14' W 093°15'0 0.0
2017-Oct-09 14:58N 30°14' W 093°15'0 0.0
2017-Oct-09 14:28N 30°14' W 093°15'0 0.0
2017-Oct-09 13:58N 30°14' W 093°15'0 0.0
2017-Oct-09 13:28N 30°14' W 093°15'0 0.0
2017-Oct-09 12:58N 30°14' W 093°15'0 0.0
2017-Oct-09 12:25N 30°14' W 093°15'0 0.0
2017-Oct-09 11:40N 30°14' W 093°15'0 0.0
2017-Oct-09 11:22N 30°14' W 093°15'0 0.0
2017-Oct-09 10:58N 30°14' W 093°15'0 0.0
2017-Oct-09 10:28N 30°14' W 093°15'0 0.0
2017-Oct-09 06:19N 30°14' W 093°15'0 0.0
2017-Oct-09 05:52N 30°14' W 093°15'0 0.0
2017-Oct-09 05:28N 30°14' W 093°15'0 0.0
2017-Oct-09 04:58N 30°14' W 093°15'0 0.0
2017-Oct-09 04:28N 30°14' W 093°15'0 0.0
2017-Oct-09 03:58N 30°14' W 093°15'0 0.0
2017-Oct-09 03:28N 30°14' W 093°15'0 0.0
2017-Oct-09 02:58N 30°14' W 093°15'0 0.0
2017-Oct-09 02:25N 30°14' W 093°15'0 0.0
2017-Oct-09 01:55N 30°14' W 093°15'0 0.0
2017-Oct-09 01:28N 30°14' W 093°15'0 0.0
2017-Oct-09 00:58N 30°14' W 093°15'0 0.0
2017-Oct-09 00:28N 30°14' W 093°15'0 0.0
2017-Oct-08 23:58N 30°14' W 093°15'0 0.0
2017-Oct-08 23:28N 30°14' W 093°15'0 0.0
2017-Oct-08 22:58N 30°14' W 093°15'0 0.0
2017-Oct-08 22:28N 30°14' W 093°15'0 0.0
2017-Oct-08 21:58N 30°14' W 093°15'0 0.0
2017-Oct-08 21:25N 30°14' W 093°15'0 0.0
2017-Oct-08 20:58N 30°14' W 093°15'0 0.0
2017-Oct-08 20:28N 30°14' W 093°15'0 0.0
2017-Oct-08 19:58N 30°14' W 093°15'0 0.0
2017-Oct-08 19:28N 30°14' W 093°15'0 0.0
2017-Oct-08 18:58N 30°14' W 093°15'0 0.0
2017-Oct-08 18:19N 30°14' W 093°15'0 0.0
2017-Oct-08 17:58N 30°14' W 093°15'0 0.0
2017-Oct-08 17:28N 30°14' W 093°15'0 0.0
2017-Oct-08 16:46N 30°14' W 093°15'0 0.0
2017-Oct-08 16:28N 30°14' W 093°15'0 0.0
2017-Oct-08 15:55N 30°14' W 093°15'0 0.0
2017-Oct-08 15:28N 30°14' W 093°15'0 0.0
2017-Oct-08 14:58N 30°14' W 093°15'0 0.0
2017-Oct-08 14:28N 30°14' W 093°15'0 0.0
2017-Oct-08 13:58N 30°14' W 093°15'0 0.0
2017-Oct-08 13:28N 30°14' W 093°15'0 0.0
2017-Oct-08 12:58N 30°14' W 093°15'0 0.0
2017-Oct-08 12:22N 30°14' W 093°15'0 0.0
2017-Oct-08 11:58N 30°14' W 093°15'0 0.0
2017-Oct-08 11:28N 30°14' W 093°15'0 0.0
2017-Oct-08 10:58N 30°14' W 093°15'0 0.0
2017-Oct-08 10:28N 30°14' W 093°15'0 0.0
2017-Oct-08 09:58N 30°14' W 093°15'0 0.0
2017-Oct-08 09:28N 30°14' W 093°15'0 0.0
2017-Oct-08 08:58N 30°14' W 093°15'0 0.0
2017-Oct-08 08:28N 30°14' W 093°15'0 0.0
2017-Oct-08 07:58N 30°14' W 093°15'0 0.0
2017-Oct-08 07:25N 30°14' W 093°15'0 0.0
2017-Oct-08 06:58N 30°14' W 093°15'0 0.0
2017-Oct-08 06:28N 30°14' W 093°15'0 0.0
2017-Oct-08 05:58N 30°14' W 093°15'0 0.0
2017-Oct-08 05:28N 30°14' W 093°15'0 0.0
2017-Oct-08 04:58N 30°14' W 093°15'0 0.0
2017-Oct-08 04:28N 30°14' W 093°15'0 0.0
2017-Oct-08 03:58N 30°14' W 093°15'0 0.0
2017-Oct-08 03:28N 30°14' W 093°15'0 0.0
2017-Oct-08 02:58N 30°14' W 093°15'0 0.0
2017-Oct-08 02:28N 30°14' W 093°15'0 0.0
2017-Oct-08 01:58N 30°14' W 093°15'0 0.0
2017-Oct-08 01:28N 30°14' W 093°15'0 0.0
2017-Oct-08 00:58N 30°14' W 093°15'0 0.0
2017-Oct-08 00:22N 30°14' W 093°15'0 0.0
2017-Oct-07 23:58N 30°14' W 093°15'0 0.0
2017-Oct-07 23:25N 30°14' W 093°15'0 0.0
2017-Oct-07 22:58N 30°14' W 093°15'0 0.0
2017-Oct-07 22:28N 30°14' W 093°15'0 0.0
2017-Oct-07 21:58N 30°14' W 093°15'0 0.0
2017-Oct-07 21:28N 30°14' W 093°15'0 0.0
2017-Oct-07 20:55N 30°14' W 093°15'0 0.0
2017-Oct-07 20:28N 30°14' W 093°15'0 0.0
2017-Oct-07 19:58N 30°14' W 093°15'0 0.1
2017-Oct-07 19:30N 30°14' W 093°15'1 1.8
2017-Oct-07 18:59N 30°13' W 093°16'0 0.0
2017-Oct-07 18:29N 30°13' W 093°16'0 0.0
2017-Oct-07 17:59N 30°13' W 093°16'0 0.1
2017-Oct-07 17:29N 30°13' W 093°16'0 0.1
2017-Oct-07 16:59N 30°13' W 093°16'0 0.0
2017-Oct-07 16:29N 30°13' W 093°16'0 0.1
2017-Oct-07 15:59N 30°13' W 093°16'0 0.0
2017-Oct-07 15:29N 30°13' W 093°16'0 0.0
2017-Oct-07 14:59N 30°13' W 093°16'0 0.0
2017-Oct-07 14:29N 30°13' W 093°16'0 0.0
2017-Oct-07 13:59N 30°13' W 093°16'0 0.0
2017-Oct-07 13:29N 30°13' W 093°16'0 0.0
2017-Oct-07 12:59N 30°13' W 093°16'0 0.0
2017-Oct-07 12:29N 30°13' W 093°16'0 0.0
2017-Oct-07 11:59N 30°13' W 093°16'0 0.0
2017-Oct-07 11:29N 30°13' W 093°16'0 0.0
2017-Oct-07 10:59N 30°13' W 093°16'0 0.0
2017-Oct-07 10:29N 30°13' W 093°16'0 0.0
2017-Oct-07 09:59N 30°13' W 093°16'0 0.0
2017-Oct-07 09:29N 30°13' W 093°16'0 0.0
2017-Oct-07 08:59N 30°13' W 093°16'0 0.0
2017-Oct-07 08:29N 30°13' W 093°16'0 0.0
2017-Oct-07 07:59N 30°13' W 093°16'0 0.0
2017-Oct-07 07:29N 30°13' W 093°16'0 0.5
2017-Oct-07 07:00N 30°13' W 093°16'2 4.0
2017-Oct-07 06:30N 30°12' W 093°17'2 4.4
2017-Oct-07 06:00N 30°10' W 093°19'3 5.0
2017-Oct-07 05:30N 30°08' W 093°20'3 6.6
2017-Oct-07 05:00N 30°04' W 093°20'4 7.3
2017-Oct-07 04:30N 30°01' W 093°20'4 7.7
2017-Oct-07 04:00N 29°57' W 093°20'611.0
2017-Oct-07 03:30N 29°51' W 093°21'4 8.6
2017-Oct-07 03:00N 29°47' W 093°21'  

Dump ship's entire track history